Time;durP1;ratioP1;P1;durP2;ratioP2;P2;SDS_P1;SDS_P2;PMS_P1;PMS_P2;Temp;Humidity;BMP_temperature;BMP_pressure;BME280_temperature;BME280_humidity;BME280_pressure;Samples;Min_cycle;Max_cycle;Signal;HPM_P1;HPM_P2
2022/05/20 00:00:19;;;;;;;1.60;1.08;;;17.70;1.40;;;18.95;100.00;96134.89;645443;212;31617;-75
2022/05/20 00:03:00;;;;;;;0.80;0.70;;;17.60;1.40;;;18.85;100.00;96134.00;647042;216;31510;-75
2022/05/20 00:05:42;;;;;;;1.15;1.05;;;17.60;1.40;;;18.81;100.00;96130.83;646080;216;31670;-75
2022/05/20 00:08:24;;;;;;;1.10;1.00;;;17.50;1.40;;;18.69;100.00;96130.01;644109;212;31785;-75
2022/05/20 00:11:05;;;;;;;1.00;0.75;;;17.30;1.40;;;18.49;100.00;96126.46;647848;216;31625;-76
2022/05/20 00:13:47;;;;;;;2.60;1.23;;;17.10;1.40;;;18.40;100.00;96125.70;646400;216;31477;-76
2022/05/20 00:16:29;;;;;;;0.80;0.80;;;17.10;1.40;;;18.29;100.00;96124.55;647624;216;31552;-76
2022/05/20 00:19:10;;;;;;;1.10;0.93;;;17.00;1.40;;;18.33;100.00;96123.52;646454;212;31517;-75
2022/05/20 00:21:52;;;;;;;1.37;0.93;;;16.80;1.40;;;18.28;100.00;96124.16;645556;212;31575;-76
2022/05/20 00:25:45;;;;;;;1.40;1.10;;;16.70;1.40;;;18.15;100.00;96129.56;646254;212;31510;-75
2022/05/20 00:27:17;;;;;;;0.98;0.70;;;16.50;1.40;;;18.02;100.00;96126.10;646807;216;32065;-76
2022/05/20 00:29:58;;;;;;;1.70;0.90;;;16.30;1.40;;;17.87;100.00;96125.36;615543;224;32732;-76
2022/05/20 00:32:40;;;;;;;1.20;0.70;;;16.20;1.40;;;17.75;100.00;96118.58;646937;212;31546;-76
2022/05/20 00:35:51;;;;;;;1.30;1.20;;;16.40;1.40;;;17.75;100.00;96106.19;646644;212;31636;-77
2022/05/20 00:38:33;;;;;;;1.40;0.90;;;16.50;1.40;;;17.83;100.00;96107.29;646514;216;42249;-76
2022/05/20 00:41:15;;;;;;;1.42;1.00;;;16.50;1.40;;;17.83;100.00;96116.13;648018;216;31575;-76
2022/05/20 00:43:58;;;;;;;1.77;1.15;;;16.60;1.40;;;17.85;100.00;96116.56;646325;212;31554;-76
2022/05/20 00:46:38;;;;;;;1.20;1.10;;;16.70;1.40;;;17.80;100.00;96110.30;647042;212;31503;-76
2022/05/20 00:49:20;;;;;;;1.08;1.05;;;16.60;1.40;;;17.75;100.00;96107.13;619086;226;31853;-76
2022/05/20 00:52:01;;;;;;;2.10;1.20;;;16.50;1.40;;;17.64;100.00;96097.78;632175;221;31635;-76
2022/05/20 00:54:44;;;;;;;1.27;1.10;;;16.50;1.40;;;17.56;100.00;96099.89;647146;216;31500;-76
2022/05/20 00:57:25;;;;;;;0.88;0.85;;;16.40;1.40;;;17.52;100.00;96091.88;646406;216;31489;-76
2022/05/20 01:00:10;;;;;;;1.10;0.80;;;16.30;1.40;;;17.49;100.00;96086.24;646880;216;31540;-76
2022/05/20 01:02:55;;;;;;;2.10;0.70;;;16.30;1.40;;;17.43;100.00;96083.00;646787;216;31728;-75
2022/05/20 01:05:36;;;;;;;1.10;1.00;;;16.30;1.40;;;17.45;100.00;96086.98;646543;212;31554;-75
2022/05/20 01:08:18;;;;;;;1.83;1.50;;;16.40;1.40;;;17.49;100.00;96087.19;643684;216;32107;-76
2022/05/20 01:11:00;;;;;;;1.10;1.00;;;16.30;1.40;;;17.47;100.00;96077.39;646789;212;31648;-76
2022/05/20 01:13:44;;;;;;;2.70;1.00;;;16.40;1.40;;;17.46;100.00;96074.94;619931;222;31817;-76
2022/05/20 01:16:23;;;;;;;1.50;0.82;;;16.40;1.40;;;17.36;100.00;96071.62;645509;216;31580;-76
2022/05/20 01:19:05;;;;;;;1.40;1.10;;;16.30;1.40;;;17.33;100.00;96063.10;646069;216;31516;-76
2022/05/20 01:21:46;;;;;;;1.50;0.98;;;16.20;1.40;;;17.33;100.00;96063.14;642760;216;31614;-76
2022/05/20 01:24:28;;;;;;;1.12;0.95;;;16.30;1.40;;;17.31;100.00;96059.75;646569;216;31469;-76
2022/05/20 01:27:10;;;;;;;2.67;1.70;;;16.30;1.40;;;17.28;100.00;96057.98;647838;214;31516;-75
2022/05/20 01:29:51;;;;;;;0.80;0.50;;;16.20;1.40;;;17.27;100.00;96055.55;617592;225;31918;-75
2022/05/20 01:32:36;;;;;;;1.70;1.10;;;16.20;1.40;;;17.22;100.00;96047.98;646724;216;31566;-75
2022/05/20 01:35:51;;;;;;;1.00;0.80;;;16.20;1.40;;;17.21;100.00;96043.00;647232;212;42244;-76
2022/05/20 01:38:36;;;;;;;1.08;0.85;;;16.20;1.40;;;17.22;100.00;96039.97;647313;212;31511;-75
2022/05/20 01:41:29;;;;;;;2.80;0.90;;;16.20;1.40;;;17.24;100.00;96037.41;646340;216;42771;-76
2022/05/20 01:44:35;;;;;;;0.98;0.98;;;16.20;1.40;;;17.29;100.00;96039.33;647551;212;32045;-75
2022/05/20 01:47:17;;;;;;;1.00;0.80;;;16.20;1.40;;;17.21;100.00;96030.30;647349;216;31522;-75
2022/05/20 01:50:19;;;;;;;1.50;1.10;;;16.10;1.40;;;17.17;100.00;96023.82;646546;216;31589;-75
2022/05/20 01:53:08;;;;;;;1.20;1.00;;;16.10;1.40;;;17.14;100.00;96025.62;646909;216;31537;-76
2022/05/20 01:55:53;;;;;;;1.15;0.98;;;16.10;1.40;;;17.09;100.00;96023.22;646704;216;31549;-75
2022/05/20 01:58:48;;;;;;;2.80;0.90;;;16.00;1.40;;;17.07;100.00;96017.10;642562;216;31528;-75
2022/05/20 02:04:05;;;;;;;1.62;1.35;;;15.90;1.40;;;17.09;100.00;96005.30;620126;222;31945;-76
2022/05/20 02:06:47;;;;;;;1.50;0.93;;;16.00;1.40;;;17.05;100.00;96000.80;647552;216;31497;-76
2022/05/20 02:09:34;;;;;;;1.83;0.90;;;16.00;1.40;;;17.05;100.00;95998.28;638678;212;31675;-76
2022/05/20 02:12:16;;;;;;;1.17;1.08;;;16.00;1.40;;;17.02;100.00;95999.39;646681;216;31523;-76
2022/05/20 02:14:58;;;;;;;1.20;0.90;;;15.90;1.40;;;17.05;100.00;96002.65;646479;216;31677;-77
2022/05/20 02:17:40;;;;;;;4.25;0.90;;;16.00;1.40;;;17.07;100.00;96001.20;644955;216;31538;-76
2022/05/20 02:20:35;;;;;;;0.90;0.60;;;16.10;1.40;;;17.14;100.00;96003.92;646471;216;31473;-75
2022/05/20 02:23:19;;;;;;;0.80;0.70;;;16.10;1.40;;;17.13;100.00;95999.50;646161;212;31557;-75
2022/05/20 02:26:03;;;;;;;0.90;0.80;;;16.10;1.40;;;17.17;100.00;95998.55;646827;216;31534;-76
2022/05/20 02:28:45;;;;;;;1.62;1.10;;;16.10;1.40;;;17.25;100.00;95998.50;646266;216;31539;-75
2022/05/20 02:31:36;;;;;;;2.20;1.10;;;16.30;1.40;;;17.26;100.00;95995.52;646046;212;31498;-75
2022/05/20 02:35:51;;;;;;;1.10;0.80;;;16.20;1.40;;;17.19;100.00;95992.66;642043;216;31536;-75
2022/05/20 02:38:32;;;;;;;1.92;0.93;;;16.20;1.40;;;17.22;100.00;95996.72;646147;216;31484;-75
2022/05/20 02:41:14;;;;;;;1.30;1.10;;;16.20;1.40;;;17.14;100.00;95994.95;630215;222;31658;-76
2022/05/20 02:43:56;;;;;;;0.70;0.70;;;16.00;1.40;;;17.09;100.00;96000.08;641337;217;31493;-75
2022/05/20 02:46:40;;;;;;;1.15;0.70;;;16.00;1.40;;;17.10;100.00;96000.42;644729;216;31520;-76
2022/05/20 02:49:22;;;;;;;1.20;0.60;;;16.00;1.40;;;17.05;100.00;96000.91;646453;216;31509;-75
2022/05/20 02:52:07;;;;;;;1.00;0.90;;;15.90;1.40;;;17.00;100.00;95994.14;619570;226;31956;-76
2022/05/20 02:54:49;;;;;;;0.77;0.50;;;15.80;1.40;;;16.94;100.00;95999.75;647256;212;31578;-75
2022/05/20 02:57:31;;;;;;;1.20;1.10;;;15.80;1.40;;;16.87;100.00;95997.94;645547;216;31492;-75
2022/05/20 03:05:47;;;;;;;1.40;0.80;;;15.70;1.40;;;16.82;100.00;95998.05;648065;216;31486;-76
2022/05/20 03:08:29;;;;;;;1.58;0.90;;;15.70;1.40;;;16.80;100.00;95998.59;646147;216;31634;-76
2022/05/20 03:11:10;;;;;;;1.60;0.85;;;15.70;1.40;;;16.75;100.00;96004.22;646930;216;31570;-76
2022/05/20 03:13:52;;;;;;;1.15;0.73;;;15.60;1.40;;;16.71;100.00;96000.64;646057;216;31536;-76
2022/05/20 03:16:34;;;;;;;1.30;1.20;;;15.60;1.40;;;16.71;100.00;95995.95;646282;212;31543;-75
2022/05/20 03:21:53;;;;;;;0.80;0.50;;;15.50;1.40;;;16.61;100.00;96000.72;646778;212;32222;-75
2022/05/20 03:24:35;;;;;;;0.70;0.70;;;15.50;1.40;;;16.60;100.00;95995.33;647472;216;31450;-76
2022/05/20 03:27:20;;;;;;;1.12;0.80;;;15.50;1.40;;;16.63;100.00;95994.47;647052;216;31493;-75
2022/05/20 03:30:02;;;;;;;0.80;0.80;;;15.50;1.40;;;16.56;100.00;95994.11;647011;216;31627;-75
2022/05/20 03:32:46;;;;;;;1.45;0.57;;;15.50;1.40;;;16.53;100.00;95993.53;646995;212;31506;-76
2022/05/20 03:35:51;;;;;;;1.62;0.82;;;15.50;1.40;;;16.55;100.00;95993.98;647139;216;32153;-76
2022/05/20 03:38:33;;;;;;;0.70;0.50;;;15.50;1.40;;;16.56;100.00;95990.13;646045;215;31562;-75
2022/05/20 03:41:17;;;;;;;0.98;0.70;;;15.50;1.40;;;16.59;100.00;95995.11;647514;216;31559;-76
2022/05/20 03:43:59;;;;;;;1.10;0.70;;;15.50;1.40;;;16.66;100.00;95997.31;619812;226;31789;-74
2022/05/20 03:46:41;;;;;;;1.25;0.90;;;15.60;1.40;;;16.70;100.00;95998.33;646357;216;31529;-75
2022/05/20 03:49:22;;;;;;;1.50;0.73;;;15.60;1.40;;;16.71;100.00;95996.89;644756;213;31500;-75
2022/05/20 03:52:04;;;;;;;3.37;0.60;;;15.50;1.40;;;16.69;100.00;95991.81;646987;216;31603;-76
2022/05/20 03:54:46;;;;;;;2.00;0.93;;;15.30;1.40;;;16.66;100.00;95998.63;646804;216;31535;-75
2022/05/20 03:57:28;;;;;;;1.12;0.80;;;15.10;1.40;;;16.57;100.00;95993.88;646838;216;31784;-75
2022/05/20 04:00:10;;;;;;;1.08;1.05;;;15.10;1.40;;;16.49;100.00;95997.45;647368;212;31617;-76
2022/05/20 04:02:52;;;;;;;1.77;0.88;;;15.00;1.40;;;16.51;100.00;95995.97;646935;216;31492;-76
2022/05/20 04:05:33;;;;;;;0.60;0.40;;;15.00;1.40;;;16.54;100.00;95995.36;644884;216;31615;-76
2022/05/20 04:08:19;;;;;;;0.65;0.50;;;15.20;1.40;;;16.65;100.00;95988.42;645545;216;31653;-75
2022/05/20 04:11:00;;;;;;;1.27;0.60;;;15.30;1.40;;;16.71;100.00;95995.17;646838;216;31552;-75
2022/05/20 04:13:41;;;;;;;2.10;1.30;;;15.30;1.40;;;16.78;100.00;95994.63;647006;216;31533;-75
2022/05/20 04:16:23;;;;;;;1.10;0.40;;;15.30;1.40;;;16.82;100.00;95995.42;646910;216;31517;-75
2022/05/20 04:19:08;;;;;;;1.40;0.90;;;15.30;1.40;;;16.87;100.00;95991.89;646733;216;31518;-76
2022/05/20 04:21:50;;;;;;;1.10;1.00;;;15.60;1.40;;;16.98;100.00;95991.31;645602;212;31556;-75
2022/05/20 04:24:34;;;;;;;0.77;0.70;;;15.80;1.40;;;17.10;100.00;95993.88;645970;216;31642;-76
2022/05/20 04:27:16;;;;;;;2.17;1.40;;;15.90;1.40;;;17.24;100.00;95997.73;648031;216;32606;-76
2022/05/20 04:29:58;;;;;;;1.50;1.02;;;16.10;1.40;;;17.29;100.00;95999.36;620420;222;31988;-76
2022/05/20 04:32:39;;;;;;;1.10;1.00;;;16.00;1.40;;;17.35;100.00;95995.02;646296;216;31610;-76
2022/05/20 04:35:51;;;;;;;0.80;0.68;;;16.00;1.40;;;17.45;100.00;95997.33;646534;216;32262;-77
2022/05/20 04:38:36;;;;;;;1.15;0.70;;;16.20;1.40;;;17.60;100.00;96002.73;646314;216;32313;-76
2022/05/20 04:46:57;;;;;;;1.60;1.10;;;16.60;1.40;;;17.90;100.00;96006.22;619163;222;31834;-75
2022/05/20 04:49:42;;;;;;;2.00;0.60;;;16.80;1.40;;;18.00;100.00;96008.94;647391;216;32093;-75
2022/05/20 04:52:24;;;;;;;0.90;0.80;;;16.90;1.40;;;18.03;100.00;96014.44;645954;216;31642;-75
2022/05/20 04:55:06;;;;;;;1.30;0.90;;;16.90;1.40;;;18.08;100.00;96013.34;645751;213;31591;-75
2022/05/20 04:57:49;;;;;;;0.70;0.52;;;17.00;1.40;;;18.18;100.00;96008.55;646668;216;32077;-75
2022/05/20 05:00:18;;;;;;;1.20;1.10;;;17.10;1.40;;;18.26;100.00;96007.31;636060;220;31888;-75
2022/05/20 05:02:59;;;;;;;2.60;0.90;;;17.10;1.40;;;18.35;100.00;96009.80;645325;216;31935;-75
2022/05/20 05:05:41;;;;;;;1.00;0.90;;;17.20;1.40;;;18.45;100.00;96011.12;647167;216;32079;-75
2022/05/20 05:08:22;;;;;;;1.40;1.00;;;17.30;1.40;;;18.54;100.00;96012.25;646554;216;32120;-74
2022/05/20 05:11:04;;;;;;;0.80;0.60;;;17.40;1.40;;;18.62;100.00;96009.22;645573;212;31623;-75
2022/05/20 05:13:46;;;;;;;1.80;1.10;;;17.50;1.40;;;18.73;100.00;96009.52;647180;216;31579;-75
2022/05/20 05:16:29;;;;;;;0.93;0.70;;;17.60;1.40;;;18.89;100.00;96009.11;619045;226;43148;-74
2022/05/20 05:19:11;;;;;;;0.83;0.80;;;17.70;1.40;;;18.98;100.00;96005.88;646400;216;31653;-75
2022/05/20 05:21:56;;;;;;;0.90;0.80;;;17.90;1.40;;;19.12;100.00;96004.95;644868;216;31484;-75
2022/05/20 05:24:38;;;;;;;0.75;0.50;;;18.10;1.40;;;19.21;100.00;96009.42;646690;216;31579;-75
2022/05/20 05:27:20;;;;;;;1.50;1.00;;;18.20;1.40;;;19.37;100.00;96006.22;647181;216;31532;-75
2022/05/20 05:30:01;;;;;;;1.00;0.77;;;18.30;1.40;;;19.50;100.00;96006.63;647096;216;31499;-75
2022/05/20 05:32:43;;;;;;;1.20;0.80;;;18.50;1.40;;;19.60;100.00;96008.60;619737;225;32602;-75
2022/05/20 05:35:51;;;;;;;0.80;0.70;;;18.60;1.40;;;19.69;100.00;96004.73;646706;216;31579;-74
2022/05/20 05:38:33;;;;;;;1.40;0.80;;;18.70;1.40;;;19.79;100.00;96007.70;646349;216;31495;-75
2022/05/20 05:41:17;;;;;;;1.60;0.95;;;18.80;1.40;;;19.93;100.00;96008.45;618522;225;31895;-75
2022/05/20 05:43:59;;;;;;;1.70;1.10;;;18.90;1.40;;;20.01;100.00;96006.38;646372;216;31510;-74
2022/05/20 05:46:38;;;;;;;1.00;0.90;;;18.90;1.40;;;20.11;100.00;96008.10;648390;212;31518;-75
2022/05/20 05:49:20;;;;;;;0.90;0.77;;;19.00;1.40;;;20.18;100.00;96005.69;647587;216;42303;-75
2022/05/20 05:52:01;;;;;;;1.30;0.80;;;19.10;1.40;;;20.27;100.00;96006.48;645023;216;31831;-75
2022/05/20 05:54:43;;;;;;;1.17;1.00;;;19.20;1.40;;;20.38;100.00;96010.66;648223;216;42144;-75
2022/05/20 05:57:25;;;;;;;1.40;1.23;;;19.30;1.40;;;20.45;100.00;96012.77;645832;216;32233;-75
2022/05/20 06:00:08;;;;;;;1.27;1.05;;;19.30;1.40;;;20.50;100.00;96020.45;647483;212;31584;-75
2022/05/20 06:02:50;;;;;;;1.40;1.17;;;19.40;1.40;;;20.56;100.00;96015.42;618436;226;42562;-75
2022/05/20 06:05:34;;;;;;;1.12;0.80;;;19.50;1.40;;;20.64;100.00;96014.10;646664;216;31577;-75
2022/05/20 06:08:16;;;;;;;1.20;0.90;;;19.50;1.40;;;20.72;100.00;96015.14;645886;212;42190;-75
2022/05/20 06:11:01;;;;;;;1.02;0.80;;;19.60;1.40;;;20.78;100.00;96014.28;646144;216;31673;-75
2022/05/20 06:13:42;;;;;;;1.80;1.12;;;19.60;1.40;;;20.87;100.00;96015.89;620782;222;32017;-75
2022/05/20 06:16:27;;;;;;;1.10;1.00;;;19.80;1.40;;;21.01;100.00;96020.11;647252;216;32355;-75
2022/05/20 06:19:09;;;;;;;1.10;0.97;;;19.80;1.40;;;21.02;100.00;96019.94;645712;216;31938;-75
2022/05/20 06:21:54;;;;;;;1.60;1.05;;;19.90;1.40;;;21.05;100.00;96011.01;633557;220;32001;-74
2022/05/20 06:24:35;;;;;;;1.08;0.88;;;20.00;1.40;;;21.13;100.00;96017.88;645891;216;31570;-75
2022/05/20 06:27:23;;;;;;;1.20;0.80;;;20.00;1.40;;;21.12;100.00;96018.62;620310;226;31968;-83
2022/05/20 06:30:13;;;;;;;1.20;0.93;;;20.00;1.40;;;21.15;100.00;96021.35;647967;216;31515;-75
2022/05/20 06:32:54;;;;;;;1.00;0.90;;;19.80;1.40;;;21.11;100.00;96018.78;646814;216;31498;-75
2022/05/20 06:41:16;;;;;;;1.20;1.10;;;18.80;1.40;;;20.59;100.00;96012.86;647779;216;31675;-75
2022/05/20 06:43:58;;;;;;;1.20;0.70;;;19.30;1.40;;;20.59;100.00;96016.83;645852;216;31586;-75
2022/05/20 06:46:39;;;;;;;1.05;0.90;;;19.30;1.40;;;20.64;100.00;96007.42;646055;216;42114;-75
2022/05/20 06:49:24;;;;;;;1.70;1.00;;;19.80;1.40;;;20.67;100.00;96005.17;618735;225;31888;-75
2022/05/20 06:52:08;;;;;;;1.75;1.30;;;20.10;1.40;;;20.77;100.00;96010.85;648183;216;42476;-79
2022/05/20 06:54:51;;;;;;;1.10;0.80;;;20.50;1.40;;;20.87;100.00;96008.83;646427;216;31638;-78
2022/05/20 06:57:32;;;;;;;0.90;0.80;;;20.60;1.40;;;21.02;100.00;96006.87;619381;226;32022;-78
2022/05/20 07:00:14;;;;;;;1.00;0.90;;;20.80;1.40;;;21.27;100.00;96006.38;620779;226;42707;-79
2022/05/20 07:02:56;;;;;;;2.40;1.00;;;21.00;1.40;;;21.64;100.00;95991.64;618559;226;43123;-79
2022/05/20 07:05:40;;;;;;;1.00;0.80;;;21.20;1.40;;;22.04;100.00;95989.66;646642;216;31670;-75
2022/05/20 07:08:22;;;;;;;1.50;1.20;;;21.40;1.40;;;22.48;100.00;95986.95;645459;216;31621;-75
2022/05/20 07:11:03;;;;;;;1.33;1.02;;;21.70;1.40;;;22.69;100.00;95983.56;619230;225;32158;-75
2022/05/20 07:13:45;;;;;;;1.35;1.25;;;21.80;1.40;;;22.87;100.00;95978.05;646038;216;31670;-75
2022/05/20 07:16:27;;;;;;;1.07;0.93;;;21.80;1.40;;;23.11;100.00;95977.63;646900;212;31593;-75
2022/05/20 07:19:08;;;;;;;1.90;1.10;;;22.00;1.40;;;23.33;100.00;95982.48;646292;216;32145;-77
2022/05/20 07:21:50;;;;;;;1.35;1.08;;;22.20;1.40;;;23.49;100.00;95982.85;646175;212;31590;-76
2022/05/20 07:24:38;;;;;;;1.83;1.53;;;22.40;1.40;;;23.53;99.49;95976.33;625395;222;23033;-80
2022/05/20 07:27:26;;;;;;;1.87;1.30;;;22.40;1.40;;;23.75;98.31;95973.62;645461;216;32110;-76
2022/05/20 07:30:08;;;;;;;1.52;1.20;;;22.70;1.40;;;24.03;100.00;95976.14;646863;212;31740;-75
2022/05/20 07:32:51;;;;;;;0.80;0.80;;;22.90;1.40;;;24.26;96.81;95976.16;641984;216;31537;-76
2022/05/20 07:35:52;;;;;;;1.27;0.90;;;23.20;1.40;;;24.31;96.46;95975.87;646210;216;31642;-76
2022/05/20 07:38:33;;;;;;;1.23;1.10;;;23.20;1.40;;;24.44;95.98;95973.77;646207;216;31495;-76
2022/05/20 07:41:19;;;;;;;1.30;1.20;;;23.30;1.40;;;24.55;93.39;95975.18;646557;216;31495;-76
2022/05/20 07:43:59;;;;;;;1.10;1.00;;;23.40;1.40;;;24.56;90.61;95976.03;645215;216;31522;-75
2022/05/20 07:46:41;;;;;;;2.05;1.30;;;23.30;1.40;;;24.55;89.11;95980.59;646946;216;42137;-76
2022/05/20 07:49:23;;;;;;;1.70;1.00;;;23.40;1.40;;;24.57;89.10;95981.84;647196;212;31499;-75
2022/05/20 07:52:05;;;;;;;1.30;1.10;;;23.40;1.40;;;24.77;88.57;95983.66;646247;216;31511;-76
2022/05/20 07:54:47;;;;;;;1.30;1.20;;;23.70;1.40;;;24.93;88.27;95978.20;646214;216;31721;-76
2022/05/20 07:57:28;;;;;;;1.30;1.20;;;23.80;1.40;;;25.25;84.68;95973.35;646896;216;42775;-76
2022/05/20 08:00:13;;;;;;;1.05;0.95;;;24.20;1.40;;;25.47;84.40;95972.41;619058;226;42620;-76
2022/05/20 08:02:53;;;;;;;4.22;1.40;;;24.40;1.40;;;25.70;82.90;95970.75;646245;216;31941;-76
2022/05/20 08:05:35;;;;;;;2.20;1.27;;;24.60;1.40;;;25.86;79.03;95967.30;647511;216;31527;-76
2022/05/20 08:08:16;;;;;;;1.20;0.93;;;24.70;1.40;;;26.12;78.34;95962.25;645547;216;31533;-76
2022/05/20 08:10:58;;;;;;;1.60;1.50;;;24.90;1.40;;;26.20;78.25;95960.34;646025;212;31543;-76
2022/05/20 08:13:40;;;;;;;3.20;1.20;;;25.00;1.40;;;26.26;76.49;95956.67;645992;216;31531;-76
2022/05/20 08:16:23;;;;;;;1.55;1.20;;;25.10;1.40;;;26.40;70.97;95951.71;622657;226;32036;-79
2022/05/20 08:19:11;;;;;;;1.20;1.00;;;25.10;1.40;;;26.61;74.92;95953.95;646534;216;31571;-76
2022/05/20 08:21:53;;;;;;;2.80;1.00;;;25.30;1.40;;;26.96;77.79;95950.36;647768;216;31874;-76
2022/05/20 08:24:35;;;;;;;4.28;1.10;;;25.60;1.40;;;27.19;74.17;95951.03;646137;212;31648;-76
2022/05/20 08:27:16;;;;;;;1.90;1.65;;;25.90;1.40;;;26.96;67.74;95947.98;646842;216;31578;-77
2022/05/20 08:29:58;;;;;;;1.80;1.40;;;25.60;1.40;;;27.01;68.32;95944.52;645422;212;31507;-76
2022/05/20 08:32:40;;;;;;;1.52;1.40;;;25.60;1.40;;;27.36;70.51;95944.36;646641;216;31528;-77
2022/05/20 08:35:58;;;;;;;2.60;1.37;;;26.00;1.40;;;27.30;67.24;95936.88;646370;212;31538;-76
2022/05/20 08:38:40;;;;;;;1.48;1.02;;;26.00;1.40;;;27.21;66.12;95933.37;646140;216;31630;-76
2022/05/20 08:41:25;;;;;;;1.50;1.40;;;25.80;1.40;;;27.29;62.80;95930.75;647217;216;31749;-76
2022/05/20 08:44:08;;;;;;;1.80;1.45;;;25.90;1.40;;;27.69;68.32;95923.59;647257;212;32186;-77
2022/05/20 08:46:48;;;;;;;2.67;1.40;;;26.40;1.40;;;27.42;62.58;95926.19;646152;216;42228;-77
2022/05/20 08:49:33;;;;;;;2.08;1.17;;;26.00;1.40;;;27.45;67.08;95925.14;647379;216;32276;-76
2022/05/20 08:52:15;;;;;;;2.55;1.70;;;26.00;1.40;;;27.85;67.11;95919.24;646794;216;35307;-76
2022/05/20 08:55:01;;;;;;;1.50;1.40;;;26.60;1.40;;;28.01;62.11;95920.68;618750;222;32286;-76
2022/05/20 08:57:52;;;;;;;1.50;1.40;;;26.90;1.40;;;28.30;60.51;95917.04;646946;212;31609;-76
2022/05/20 09:00:33;;;;;;;1.60;1.50;;;26.90;1.40;;;28.64;64.65;95916.16;647796;216;31890;-76
2022/05/20 09:03:16;;;;;;;4.82;1.52;;;27.30;1.40;;;28.72;61.89;95916.50;630037;220;31933;-76
2022/05/20 09:06:12;;;;;;;2.03;1.62;;;27.20;1.40;;;28.43;60.29;95913.63;646390;216;31680;-76
2022/05/20 09:09:06;;;;;;;1.55;1.45;;;27.30;1.40;;;29.00;62.78;95914.33;612371;222;42837;-79
2022/05/20 09:11:55;;;;;;;3.75;1.30;;;27.80;1.40;;;28.86;57.39;95914.19;646273;216;31698;-76
2022/05/20 09:17:26;;;;;;;2.08;1.50;;;27.70;1.40;;;29.98;59.22;95913.00;646566;216;31936;-76
2022/05/20 09:20:10;;;;;;;1.50;1.40;;;29.80;1.40;;;31.06;52.80;95901.99;646860;216;31556;-77
2022/05/20 09:22:58;;;;;;;1.10;1.00;;;31.30;1.40;;;31.44;51.35;95902.42;618560;226;33216;-78
2022/05/20 09:25:46;;;;;;;3.92;1.50;;;31.70;1.40;;;32.54;50.39;95895.94;647571;212;31553;-79
2022/05/20 09:28:34;;;;;;;1.70;1.40;;;32.10;1.40;;;31.99;48.86;95895.52;647612;216;32158;-77
2022/05/20 09:31:25;;;;;;;2.10;1.20;;;31.20;1.40;;;32.81;48.55;95890.45;647153;212;31561;-78
2022/05/20 09:35:57;;;;;;;3.20;1.60;;;32.50;1.40;;;33.36;45.71;95884.91;646492;216;31730;-77
2022/05/20 09:38:45;;;;;;;1.87;1.77;;;32.20;1.40;;;33.30;44.41;95876.26;647952;212;31554;-78
2022/05/20 09:41:33;;;;;;;1.50;1.40;;;32.00;1.40;;;34.00;44.71;95875.09;646527;216;31608;-77
2022/05/20 09:44:20;;;;;;;1.55;1.40;;;33.60;1.40;;;34.66;44.47;95864.10;647654;212;31555;-78
2022/05/20 09:47:10;;;;;;;4.18;1.55;;;33.20;1.40;;;35.97;40.21;95860.95;647418;216;31563;-77
2022/05/20 09:50:05;;;;;;;2.17;1.55;;;33.90;1.40;;;35.53;41.59;95859.49;646854;216;31594;-78
2022/05/20 09:52:51;;;;;;;1.70;1.60;;;32.90;1.40;;;35.14;40.84;95849.42;620173;221;32640;-78
2022/05/20 09:55:36;;;;;;;1.55;1.30;;;33.10;1.40;;;35.72;38.22;95845.75;648128;212;31552;-78
2022/05/20 09:58:27;;;;;;;2.50;1.67;;;35.00;1.40;;;37.18;38.61;95841.60;646343;216;42154;-78
2022/05/20 10:01:04;;;;;;;2.00;1.60;;;35.00;1.40;;;39.05;37.52;95844.36;646637;216;31508;-78
2022/05/20 10:03:47;;;;;;;1.98;1.58;;;35.80;1.40;;;35.97;37.21;95843.81;620648;222;32389;-78
2022/05/20 10:06:38;;;;;;;2.12;1.80;;;32.70;1.40;;;35.28;37.65;95841.11;647924;212;32234;-76
2022/05/20 10:09:33;;;;;;;2.15;1.73;;;33.10;1.40;;;35.53;38.82;95838.67;635286;213;31761;-78
2022/05/20 10:12:23;;;;;;;2.30;1.60;;;33.50;1.40;;;35.41;36.04;95842.03;646485;212;31522;-79
2022/05/20 10:15:23;;;;;;;2.97;1.92;;;32.40;1.40;;;36.58;37.47;95840.36;646224;216;31548;-78
2022/05/20 10:18:30;;;;;;;2.00;1.70;;;33.60;1.40;;;37.10;35.68;95832.14;618949;222;32421;-76
2022/05/20 10:21:26;;;;;;;1.95;1.60;;;34.00;1.40;;;36.96;34.75;95826.19;646461;212;31544;-78
2022/05/20 10:24:28;;;;;;;2.65;1.55;;;33.20;1.40;;;36.73;33.89;95827.20;645988;212;31568;-78
2022/05/20 10:27:17;;;;;;;1.42;1.33;;;33.40;1.40;;;35.53;34.74;95822.92;646330;216;31638;-78
2022/05/20 10:36:02;;;;;;;1.77;1.67;;;33.80;1.40;;;35.80;36.60;95807.14;615993;224;31958;-75
2022/05/20 10:39:18;;;;;;;4.47;2.00;;;33.90;1.40;;;37.52;34.59;95801.85;647198;216;31545;-79
2022/05/20 10:53:38;;;;;;;3.10;1.90;;;32.80;1.40;;;36.14;35.08;95786.00;619214;225;32146;-79
2022/05/20 10:56:34;;;;;;;2.22;1.73;;;33.00;1.40;;;35.42;35.69;95784.45;647140;212;31574;-79
2022/05/20 10:59:32;;;;;;;3.90;1.90;;;32.20;1.40;;;35.14;37.52;95783.44;647000;216;31566;-76
2022/05/20 11:02:37;;;;;;;4.30;2.40;;;31.10;1.40;;;34.97;36.92;95784.81;641585;216;31713;-78
2022/05/20 11:05:50;;;;;;;2.72;1.90;;;31.40;1.40;;;35.08;38.62;95781.30;646388;212;31660;-75
2022/05/20 11:08:45;;;;;;;1.92;1.83;;;31.90;1.40;;;35.07;37.10;95778.84;637721;216;31767;-77
2022/05/20 11:12:00;;;;;;;2.42;1.98;;;31.30;1.40;;;34.02;37.34;95775.19;646775;216;32784;-77
2022/05/20 11:14:53;;;;;;;2.65;1.87;;;30.90;1.40;;;34.38;38.83;95769.69;646149;212;31727;-76
2022/05/20 11:17:45;;;;;;;2.55;1.87;;;31.30;1.40;;;33.58;38.98;95767.97;646872;216;31888;-76
2022/05/20 11:20:36;;;;;;;1.95;1.75;;;30.70;1.40;;;32.87;39.97;95763.98;619911;222;31869;-81
2022/05/20 11:23:30;;;;;;;2.33;2.12;;;30.40;1.40;;;32.34;39.84;95767.56;648103;216;42299;-84
2022/05/20 11:26:37;;;;;;;1.80;1.60;;;30.30;1.40;;;33.28;40.18;95755.63;647320;216;31663;-75
2022/05/20 11:29:23;;;;;;;2.28;1.90;;;31.10;1.40;;;32.86;41.16;95757.83;647334;216;31552;-78
2022/05/20 11:32:11;;;;;;;2.17;1.70;;;30.90;1.40;;;32.99;40.09;95751.30;646798;216;31620;-77
2022/05/20 11:36:08;;;;;;;3.40;1.58;;;31.70;1.40;;;34.27;37.69;95741.44;647432;216;42341;-77
2022/05/20 11:38:53;;;;;;;1.55;1.45;;;32.10;1.40;;;34.32;38.34;95732.58;618417;222;32687;-77
2022/05/20 11:41:43;;;;;;;2.08;1.70;;;31.90;1.40;;;34.72;38.32;95733.27;646529;216;31938;-77
2022/05/20 11:44:51;;;;;;;1.90;1.80;;;32.30;1.40;;;35.04;39.28;95735.55;646410;212;31609;-78
2022/05/20 11:48:13;;;;;;;2.37;2.10;;;32.40;1.40;;;35.68;37.08;95729.92;620589;226;42552;-77
2022/05/20 11:51:22;;;;;;;3.03;1.73;;;33.00;1.40;;;35.67;37.08;95729.00;647474;216;31594;-76
2022/05/20 11:54:11;;;;;;;1.42;1.33;;;32.60;1.40;;;34.32;36.23;95727.63;645860;216;31700;-76
2022/05/20 11:56:58;;;;;;;1.48;1.30;;;32.10;1.40;;;34.88;36.08;95723.96;618993;222;31912;-81
2022/05/20 11:59:50;;;;;;;4.37;1.50;;;32.40;1.40;;;36.42;34.92;95713.39;647389;212;31631;-77
2022/05/20 12:02:37;;;;;;;2.10;1.70;;;33.30;1.40;;;36.67;34.48;95712.44;647767;216;42301;-77
2022/05/20 12:05:18;;;;;;;3.03;1.50;;;33.00;1.40;;;36.15;34.26;95704.91;646996;216;31550;-77
2022/05/20 12:08:00;;;;;;;1.80;1.70;;;32.30;1.40;;;36.45;33.73;95698.00;647290;216;31720;-77
2022/05/20 12:10:43;;;;;;;1.92;1.80;;;32.70;1.40;;;35.72;34.67;95701.92;647018;216;31724;-75
2022/05/20 12:13:29;;;;;;;2.33;2.10;;;32.60;1.40;;;35.17;36.01;95700.34;647890;216;32150;-79
2022/05/20 12:16:17;;;;;;;1.60;1.50;;;31.70;1.40;;;34.82;39.05;95698.28;646946;216;31596;-76
2022/05/20 12:24:55;;;;;;;1.60;1.50;;;33.00;1.40;;;38.04;32.63;95671.76;645847;216;31719;-76
2022/05/20 12:27:43;;;;;;;2.75;1.70;;;33.50;1.40;;;38.59;33.44;95662.59;647810;212;31611;-78
2022/05/20 12:30:29;;;;;;;3.60;2.20;;;33.50;1.40;;;37.97;33.50;95665.75;619459;226;32033;-79
2022/05/20 12:36:09;;;;;;;2.80;1.80;;;31.80;1.40;;;35.36;35.26;95665.38;646431;216;31666;-76